Poszukuję strony z dokładną Pogodą dla pilotów (samolotów)


(mikber18) #1

Witajcie,

Poszukuję strony internetowej z pogodą dla pilotów samolotów cywilnych! Czy ktoś taką zna ?

Za odpowiedzi z góry dziękuję :slight_smile:


(chrucik) #2

http://www.landings.com/

gogle gogle i jeszcze raz gogle !!


(Akira3179082) #3

Nie obejdzie się bez nauczenia odczytywania depeszy metar chociaż są serwisy które je automatycznie odkodowują. Szukaj na google lub w wikipedii pod “Depesza METAR”. Jeżeli masz jakieś inne problemy związane z lotnictwem to pisz na pw.

EPPO 242030Z 07013KT 9999 OVC010 M03/M04 Q1027

Przykładowa depesza metar :wink:


(mikber18) #4

Już w te rzeczy się bawiłem przy Okazji Flight Simulator 2004 :slight_smile:

pozdrawiam